Time;durP1;ratioP1;P1;durP2;ratioP2;P2;SDS_P1;SDS_P2;PMS_P1;PMS_P2;Temp;Humidity;BMP_temperature;BMP_pressure;BME280_temperature;BME280_humidity;BME280_pressure;Samples;Min_cycle;Max_cycle;Signal;HPM_P1;HPM_P2
2022/02/12 00:02:20;;;;;;;2.85;2.70;;;5.00;80.60;;;;;;5015895;28;20246;-69
2022/02/12 00:04:47;;;;;;;2.33;2.22;;;4.90;81.00;;;;;;5018412;28;20202;-68
2022/02/12 00:07:14;;;;;;;2.35;2.25;;;4.90;81.10;;;;;;5027265;28;20261;-69
2022/02/12 00:09:41;;;;;;;2.45;2.35;;;4.90;80.80;;;;;;5019409;28;20728;-68
2022/02/12 00:12:09;;;;;;;2.08;2.03;;;4.80;81.00;;;;;;5028058;28;20226;-68
2022/02/12 00:14:37;;;;;;;2.55;2.45;;;4.80;81.20;;;;;;5022016;28;20204;-68
2022/02/12 00:17:04;;;;;;;2.47;2.38;;;4.80;80.70;;;;;;5027880;28;20690;-68
2022/02/12 00:19:31;;;;;;;2.25;2.15;;;4.90;80.80;;;;;;5023507;28;20643;-68
2022/02/12 00:21:58;;;;;;;2.30;2.20;;;4.90;80.70;;;;;;5023439;28;20271;-68
2022/02/12 00:24:25;;;;;;;2.42;2.33;;;4.80;80.50;;;;;;5025874;28;20203;-69
2022/02/12 00:26:52;;;;;;;2.25;2.15;;;4.80;80.00;;;;;;5025218;28;20234;-68
2022/02/12 00:29:19;;;;;;;2.25;2.10;;;4.90;80.20;;;;;;5028763;28;20271;-69
2022/02/12 00:31:48;;;;;;;2.40;2.30;;;4.80;79.80;;;;;;5028090;28;20776;-69
2022/02/12 00:34:16;;;;;;;1.88;1.77;;;4.90;79.50;;;;;;5023464;28;20195;-69
2022/02/12 00:36:43;;;;;;;1.75;1.75;;;4.90;79.50;;;;;;5025816;28;20246;-69
2022/02/12 00:39:13;;;;;;;2.38;2.28;;;4.90;79.30;;;;;;5027951;28;20231;-69
2022/02/12 00:41:40;;;;;;;2.33;2.22;;;5.00;78.90;;;;;;5020927;28;20467;-69
2022/02/12 00:44:07;;;;;;;2.33;2.15;;;4.90;78.70;;;;;;5020420;28;20643;-69
2022/02/12 00:46:34;;;;;;;2.13;2.03;;;5.00;78.30;;;;;;5018768;28;20224;-69
2022/02/12 00:49:04;;;;;;;2.33;2.22;;;5.00;78.00;;;;;;5021177;28;20208;-69
2022/02/12 00:51:31;;;;;;;2.50;2.40;;;5.00;77.30;;;;;;5022702;28;20516;-68
2022/02/12 00:53:58;;;;;;;2.60;2.50;;;4.90;79.20;;;;;;5023371;28;20660;-68
2022/02/12 00:56:26;;;;;;;2.55;2.45;;;4.60;80.80;;;;;;5024447;28;20215;-68
2022/02/12 00:58:53;;;;;;;1.92;1.90;;;4.30;82.50;;;;;;5024998;28;20312;-68
2022/02/12 01:01:20;;;;;;;2.13;2.03;;;4.00;84.00;;;;;;5031897;28;20272;-68
2022/02/12 01:03:47;;;;;;;2.33;2.22;;;3.80;84.30;;;;;;5022952;28;20625;-68
2022/02/12 01:06:15;;;;;;;2.40;2.30;;;3.70;85.10;;;;;;5028362;28;20241;-68
2022/02/12 01:08:43;;;;;;;2.70;2.60;;;3.60;84.80;;;;;;5044254;22;20218;-74
2022/02/12 01:11:10;;;;;;;2.25;2.15;;;3.50;85.50;;;;;;5080814;28;20430;-75
2022/02/12 01:13:37;;;;;;;2.20;2.10;;;3.50;84.80;;;;;;5082719;28;20607;-73
2022/02/12 01:16:05;;;;;;;2.28;2.17;;;3.50;84.80;;;;;;5083120;28;20239;-75
2022/02/12 01:18:32;;;;;;;2.15;2.05;;;3.50;86.80;;;;;;5082936;28;20661;-75
2022/02/12 01:21:00;;;;;;;2.38;2.28;;;3.60;86.70;;;;;;5097866;28;20254;-75
2022/02/12 01:23:28;;;;;;;2.40;2.30;;;3.60;86.50;;;;;;5100363;28;20197;-75
2022/02/12 01:25:55;;;;;;;2.50;2.40;;;3.60;85.20;;;;;;5098993;28;20193;-75
2022/02/12 01:28:23;;;;;;;2.58;2.47;;;3.70;84.20;;;;;;5100447;28;20254;-75
2022/02/12 01:30:50;;;;;;;2.20;2.10;;;3.70;85.10;;;;;;5095453;28;20220;-75
2022/02/12 01:33:17;;;;;;;2.40;2.30;;;3.70;84.70;;;;;;5100716;28;20464;-75
2022/02/12 01:35:44;;;;;;;2.65;2.55;;;3.70;85.10;;;;;;5098955;28;20657;-75
2022/02/12 01:38:11;;;;;;;2.55;2.45;;;3.70;84.60;;;;;;5102118;28;20216;-73
2022/02/12 01:40:39;;;;;;;2.45;2.25;;;3.70;84.90;;;;;;5100828;28;20222;-75
2022/02/12 01:43:07;;;;;;;2.00;1.90;;;3.70;84.40;;;;;;5101715;28;20766;-75
2022/02/12 01:45:35;;;;;;;2.30;2.20;;;3.70;84.60;;;;;;5100872;28;20249;-73
2022/02/12 01:48:03;;;;;;;2.53;2.42;;;3.70;84.90;;;;;;5099964;28;20581;-75
2022/02/12 01:50:30;;;;;;;2.20;2.10;;;3.70;85.20;;;;;;5103518;28;20692;-75
2022/02/12 01:52:57;;;;;;;2.67;2.58;;;3.70;84.60;;;;;;5103839;28;20277;-76
2022/02/12 01:55:24;;;;;;;2.92;2.83;;;3.70;84.40;;;;;;5119136;28;20197;-76
2022/02/12 01:57:52;;;;;;;2.55;2.45;;;3.70;85.00;;;;;;5106257;28;20237;-75
2022/02/12 02:00:22;;;;;;;2.50;2.40;;;3.70;84.80;;;;;;5101692;28;20266;-76
2022/02/12 02:02:49;;;;;;;2.60;2.50;;;3.60;84.40;;;;;;5103095;28;20221;-75
2022/02/12 02:05:18;;;;;;;2.42;2.33;;;3.60;85.30;;;;;;5101996;28;20200;-75
2022/02/12 02:07:45;;;;;;;2.60;2.50;;;3.60;85.50;;;;;;5101698;28;20217;-74
2022/02/12 02:10:15;;;;;;;2.40;2.30;;;3.60;85.10;;;;;;5103258;28;20231;-74
2022/02/12 02:12:42;;;;;;;2.67;2.58;;;3.50;84.40;;;;;;5102138;28;20220;-73
2022/02/12 02:15:11;;;;;;;2.60;2.50;;;3.50;84.30;;;;;;5103679;28;20197;-75
2022/02/12 02:17:38;;;;;;;2.50;2.40;;;3.40;84.60;;;;;;5099174;28;20220;-74
2022/02/12 02:20:07;;;;;;;2.45;2.35;;;3.40;84.90;;;;;;5104077;28;20281;-75
2022/02/12 02:22:44;;;;;;;2.60;2.50;;;3.30;85.20;;;;;;5100595;28;20225;-75
2022/02/12 02:25:11;;;;;;;2.60;2.50;;;3.30;86.20;;;;;;5102662;28;20239;-75
2022/02/12 02:27:38;;;;;;;2.20;2.10;;;3.30;86.20;;;;;;5101191;28;20232;-76
2022/02/12 02:30:06;;;;;;;2.75;2.65;;;3.30;85.30;;;;;;5100817;28;20574;-74
2022/02/12 02:32:33;;;;;;;2.67;2.58;;;3.30;85.60;;;;;;5102977;28;20303;-75
2022/02/12 02:35:00;;;;;;;2.35;2.25;;;3.20;86.30;;;;;;5100760;28;20254;-74
2022/02/12 02:37:27;;;;;;;2.60;2.50;;;3.20;86.20;;;;;;5100193;28;20225;-75
2022/02/12 02:39:56;;;;;;;2.70;2.60;;;3.10;86.90;;;;;;5101732;28;20630;-75
2022/02/12 02:42:23;;;;;;;2.28;2.17;;;3.10;87.80;;;;;;5102074;28;20569;-75
2022/02/12 02:44:50;;;;;;;2.60;2.47;;;3.00;87.70;;;;;;5101980;28;20201;-74
2022/02/12 02:47:40;;;;;;;2.50;2.40;;;3.10;88.90;;;;;;5102406;28;20216;-74
2022/02/12 02:55:59;;;;;;;2.70;2.60;;;3.10;87.80;;;;;;5116926;28;20582;-74
2022/02/12 02:56:02;;;;;;;2.60;2.50;;;3.10;86.00;;;;;;5099682;28;20204;-74
2022/02/12 02:58:32;;;;;;;2.70;2.60;;;3.10;86.40;;;;;;5100157;28;20288;-74
2022/02/12 03:00:59;;;;;;;3.00;2.90;;;3.10;86.20;;;;;;5099197;28;20197;-75
2022/02/12 03:03:27;;;;;;;2.65;2.55;;;3.10;85.90;;;;;;5097023;28;20240;-72
2022/02/12 03:05:54;;;;;;;2.42;2.33;;;3.00;86.40;;;;;;5100790;28;20257;-75
2022/02/12 03:08:21;;;;;;;3.08;2.88;;;2.80;87.50;;;;;;5096119;27;20277;-76
2022/02/12 03:10:49;;;;;;;2.75;2.65;;;2.80;88.60;;;;;;5099248;28;20217;-75
2022/02/12 03:13:16;;;;;;;2.70;2.60;;;2.60;88.60;;;;;;5100009;28;20228;-73
2022/02/12 03:15:43;;;;;;;2.67;2.58;;;2.60;87.90;;;;;;5102717;28;20192;-75
2022/02/12 03:18:10;;;;;;;2.70;2.60;;;2.50;88.30;;;;;;5096503;28;20225;-72
2022/02/12 03:20:38;;;;;;;2.85;2.75;;;2.50;89.70;;;;;;5100171;28;20258;-75
2022/02/12 03:23:05;;;;;;;2.78;2.67;;;2.40;89.50;;;;;;5102011;28;20579;-75
2022/02/12 03:25:32;;;;;;;2.70;2.60;;;2.40;90.10;;;;;;5098419;28;20212;-72
2022/02/12 03:28:03;;;;;;;2.47;2.38;;;2.30;89.40;;;;;;5097569;28;20225;-75
2022/02/12 03:30:32;;;;;;;2.85;2.67;;;2.30;90.20;;;;;;5097647;28;20311;-75
2022/02/12 03:32:59;;;;;;;2.88;2.78;;;2.30;90.20;;;;;;5098194;28;20234;-75
2022/02/12 03:35:27;;;;;;;2.60;2.50;;;2.30;90.40;;;;;;5097347;28;20651;-74
2022/02/12 03:37:55;;;;;;;2.40;2.30;;;2.30;90.10;;;;;;5099246;28;20224;-74
2022/02/12 03:40:22;;;;;;;2.30;2.20;;;2.30;90.30;;;;;;5102849;28;20252;-75
2022/02/12 03:42:49;;;;;;;2.90;2.80;;;2.30;90.60;;;;;;5114555;27;20220;-75
2022/02/12 03:45:22;;;;;;;3.47;3.28;;;2.30;90.00;;;;;;5100938;28;20208;-74
2022/02/12 03:47:50;;;;;;;2.70;2.60;;;2.30;89.40;;;;;;5094732;28;20688;-74
2022/02/12 03:50:17;;;;;;;2.80;2.70;;;2.20;89.10;;;;;;5098697;28;20219;-74
2022/02/12 03:52:44;;;;;;;2.67;2.58;;;2.10;89.40;;;;;;5098733;28;20269;-75
2022/02/12 03:55:12;;;;;;;3.10;3.00;;;2.10;90.30;;;;;;5102019;28;20615;-74
2022/02/12 03:57:39;;;;;;;2.75;2.65;;;2.00;90.10;;;;;;5104874;28;20220;-74
2022/02/12 04:00:09;;;;;;;2.47;2.38;;;1.90;90.00;;;;;;5097701;28;20312;-75
2022/02/12 04:02:38;;;;;;;2.80;2.70;;;1.90;90.20;;;;;;5102695;28;20220;-74
2022/02/12 04:05:05;;;;;;;2.63;2.53;;;1.90;90.50;;;;;;5099259;28;20190;-74
2022/02/12 04:07:32;;;;;;;2.83;2.72;;;1.80;90.70;;;;;;5102682;28;20220;-73
2022/02/12 04:09:59;;;;;;;2.80;2.70;;;1.80;91.00;;;;;;5099377;28;20220;-74
2022/02/12 04:12:26;;;;;;;2.72;2.63;;;1.80;91.10;;;;;;5100852;28;20216;-75
2022/02/12 04:14:55;;;;;;;2.70;2.60;;;1.80;90.90;;;;;;5098315;28;20257;-74
2022/02/12 04:17:24;;;;;;;2.90;2.80;;;1.80;90.80;;;;;;5099049;28;20289;-75
2022/02/12 04:19:53;;;;;;;3.00;2.90;;;1.80;90.70;;;;;;5097700;28;20217;-74
2022/02/12 04:22:20;;;;;;;2.55;2.45;;;1.80;90.60;;;;;;5100707;28;20213;-74
2022/02/12 04:24:47;;;;;;;2.72;2.63;;;1.80;90.90;;;;;;5099256;28;20210;-75
2022/02/12 04:27:14;;;;;;;2.67;2.55;;;1.80;90.80;;;;;;5103056;28;20212;-74
2022/02/12 04:29:41;;;;;;;2.80;2.70;;;1.80;91.10;;;;;;5095636;28;20216;-74
2022/02/12 04:32:09;;;;;;;2.90;2.80;;;1.80;90.80;;;;;;5101276;28;20225;-74
2022/02/12 04:34:36;;;;;;;3.00;2.90;;;1.70;90.70;;;;;;5098222;28;20219;-75
2022/02/12 04:37:04;;;;;;;3.05;2.90;;;1.70;90.90;;;;;;5116510;28;20488;-75
2022/02/12 04:39:31;;;;;;;2.92;2.83;;;1.70;91.10;;;;;;5101397;28;20231;-73
2022/02/12 04:41:58;;;;;;;2.60;2.45;;;1.60;91.00;;;;;;5101097;28;20225;-74
2022/02/12 04:44:25;;;;;;;2.97;2.88;;;1.60;90.90;;;;;;5101451;28;20605;-74
2022/02/12 04:46:52;;;;;;;2.72;2.63;;;1.60;91.10;;;;;;5097140;28;21017;-74
2022/02/12 04:49:22;;;;;;;2.47;2.38;;;1.50;91.10;;;;;;5100375;28;20356;-74
2022/02/12 04:51:49;;;;;;;2.70;2.60;;;1.50;91.30;;;;;;5097908;28;20312;-74
2022/02/12 04:54:17;;;;;;;2.78;2.67;;;1.50;91.40;;;;;;5099991;28;20196;-74
2022/02/12 04:56:44;;;;;;;2.83;2.72;;;1.50;91.50;;;;;;5102267;28;20192;-74
2022/02/12 04:59:11;;;;;;;2.88;2.78;;;1.50;92.00;;;;;;5098867;28;20226;-73
2022/02/12 05:01:38;;;;;;;2.85;2.75;;;1.50;91.50;;;;;;5103751;28;20200;-73
2022/02/12 05:04:05;;;;;;;2.83;2.72;;;1.40;91.50;;;;;;5097009;28;20273;-74
2022/02/12 05:06:32;;;;;;;2.75;2.65;;;1.40;91.50;;;;;;5102989;28;20662;-73
2022/02/12 05:08:59;;;;;;;2.90;2.80;;;1.40;91.80;;;;;;5098884;28;20282;-74
2022/02/12 05:11:28;;;;;;;2.78;2.67;;;1.40;91.60;;;;;;5105561;28;20533;-75
2022/02/12 05:13:55;;;;;;;2.97;2.80;;;1.30;91.60;;;;;;5102160;28;20217;-74
2022/02/12 05:16:22;;;;;;;2.78;2.67;;;1.30;91.70;;;;;;5103642;28;20719;-74
2022/02/12 05:18:49;;;;;;;2.90;2.80;;;1.30;91.80;;;;;;5101517;28;20590;-74
2022/02/12 05:21:16;;;;;;;3.10;3.00;;;1.30;91.80;;;;;;5105098;28;20246;-75
2022/02/12 05:23:44;;;;;;;2.50;2.40;;;1.30;91.90;;;;;;5101851;28;20215;-75
2022/02/12 05:26:11;;;;;;;3.10;3.00;;;1.30;92.10;;;;;;5100977;28;20931;-74
2022/02/12 05:28:40;;;;;;;2.90;2.80;;;1.30;92.30;;;;;;5105951;28;20435;-75
2022/02/12 05:31:07;;;;;;;3.20;3.00;;;1.30;92.30;;;;;;5120548;28;20188;-75
2022/02/12 05:33:37;;;;;;;3.38;3.17;;;1.20;92.30;;;;;;5106461;28;20274;-74
2022/02/12 05:36:05;;;;;;;3.10;3.00;;;1.30;92.00;;;;;;5103704;28;20228;-74
2022/02/12 05:38:32;;;;;;;2.85;2.75;;;1.30;92.10;;;;;;5102755;27;20236;-74
2022/02/12 05:40:59;;;;;;;3.00;2.90;;;1.20;92.30;;;;;;5104004;28;20413;-74
2022/02/12 05:43:26;;;;;;;3.05;2.85;;;1.20;92.20;;;;;;5102841;27;20217;-74
2022/02/12 05:45:55;;;;;;;2.97;2.88;;;1.20;92.50;;;;;;5102621;28;20662;-74
2022/02/12 05:48:22;;;;;;;3.05;2.95;;;1.20;92.50;;;;;;5100399;28;20220;-74
2022/02/12 05:50:49;;;;;;;2.63;2.53;;;1.20;92.40;;;;;;5099334;27;20216;-74
2022/02/12 05:53:16;;;;;;;2.88;2.78;;;1.20;92.40;;;;;;5105294;27;21252;-74
2022/02/12 05:55:43;;;;;;;2.97;2.88;;;1.10;92.30;;;;;;5101151;28;20644;-71
2022/02/12 05:58:10;;;;;;;3.13;2.92;;;1.10;92.40;;;;;;5102634;28;20270;-73
2022/02/12 06:00:37;;;;;;;2.95;2.85;;;1.00;92.40;;;;;;5100461;28;20783;-73
2022/02/12 06:03:05;;;;;;;3.13;2.92;;;1.00;92.70;;;;;;5104592;28;20212;-73
2022/02/12 06:05:33;;;;;;;2.67;2.58;;;1.00;92.70;;;;;;5103777;28;20200;-75
2022/02/12 06:08:01;;;;;;;3.20;3.00;;;1.00;92.80;;;;;;5101816;27;20271;-75
2022/02/12 06:10:28;;;;;;;3.15;3.05;;;1.10;92.70;;;;;;5101975;28;20273;-75
2022/02/12 06:12:55;;;;;;;3.20;3.10;;;1.10;92.80;;;;;;5100852;27;20274;-75
2022/02/12 06:15:23;;;;;;;3.42;3.28;;;1.10;92.80;;;;;;5103164;28;20721;-74
2022/02/12 06:17:50;;;;;;;3.10;3.00;;;1.10;92.70;;;;;;5103241;28;20213;-75
2022/02/12 06:20:19;;;;;;;3.47;3.28;;;1.10;92.70;;;;;;5101218;28;20345;-75
2022/02/12 06:22:46;;;;;;;3.80;3.60;;;1.10;92.70;;;;;;5102225;28;20218;-72
2022/02/12 06:25:13;;;;;;;3.50;3.30;;;1.10;92.70;;;;;;5118266;28;20243;-74
2022/02/12 06:27:40;;;;;;;3.53;3.33;;;1.10;92.60;;;;;;5102181;28;20269;-72
2022/02/12 06:30:07;;;;;;;3.70;3.50;;;1.10;92.00;;;;;;5101275;28;20224;-73
2022/02/12 06:32:35;;;;;;;3.00;2.90;;;1.10;92.00;;;;;;5101165;28;20220;-74
2022/02/12 06:35:01;;;;;;;3.15;3.05;;;1.10;92.10;;;;;;5101350;28;20205;-73
2022/02/12 06:37:31;;;;;;;3.20;3.10;;;1.10;92.70;;;;;;5100765;28;20593;-75
2022/02/12 06:39:58;;;;;;;3.63;3.47;;;1.10;92.70;;;;;;5101199;28;20299;-75
2022/02/12 06:42:26;;;;;;;3.50;3.30;;;1.00;92.60;;;;;;5099236;28;20224;-73
2022/02/12 06:44:53;;;;;;;3.65;3.45;;;1.00;92.70;;;;;;5103798;28;20251;-74
2022/02/12 06:47:20;;;;;;;3.67;3.47;;;1.00;92.80;;;;;;5100792;28;20220;-75
2022/02/12 06:49:47;;;;;;;3.78;3.58;;;1.00;92.80;;;;;;5104227;27;20213;-73
2022/02/12 06:52:14;;;;;;;3.05;2.88;;;1.00;92.80;;;;;;5100546;28;20189;-74
2022/02/12 06:54:42;;;;;;;3.50;3.30;;;1.00;92.80;;;;;;5099261;28;20192;-72
2022/02/12 06:57:10;;;;;;;3.35;3.22;;;1.00;93.00;;;;;;5100138;28;20619;-73
2022/02/12 06:59:37;;;;;;;4.15;3.95;;;0.90;92.90;;;;;;5096903;28;20634;-75
2022/02/12 07:02:04;;;;;;;3.65;3.45;;;1.00;93.10;;;;;;5097184;28;20197;-75
2022/02/12 07:04:31;;;;;;;3.47;3.28;;;1.00;93.10;;;;;;5101050;28;20201;-73
2022/02/12 07:06:58;;;;;;;2.80;2.70;;;1.00;93.00;;;;;;5096559;28;20250;-75
2022/02/12 07:09:25;;;;;;;3.50;3.30;;;1.00;93.00;;;;;;5097700;28;20232;-75
2022/02/12 07:11:53;;;;;;;3.33;3.22;;;1.00;92.80;;;;;;5090287;22;20770;-66
2022/02/12 07:14:20;;;;;;;3.00;2.90;;;1.00;92.90;;;;;;5064924;28;20218;-66
2022/02/12 07:16:47;;;;;;;2.83;2.72;;;1.10;93.10;;;;;;5065577;28;20456;-67
2022/02/12 07:19:14;;;;;;;3.33;3.13;;;1.10;93.10;;;;;;5062431;28;20221;-67
2022/02/12 07:21:41;;;;;;;3.20;3.10;;;1.10;93.10;;;;;;5066484;28;20283;-67
2022/02/12 07:24:08;;;;;;;3.08;2.97;;;1.10;93.10;;;;;;5072324;28;20218;-66
2022/02/12 07:26:36;;;;;;;2.95;2.85;;;1.10;93.00;;;;;;5074469;28;20263;-66
2022/02/12 07:29:04;;;;;;;2.88;2.78;;;1.10;92.90;;;;;;5067777;28;20237;-67
2022/02/12 07:31:32;;;;;;;3.20;3.00;;;1.10;92.70;;;;;;5074395;28;20213;-66
2022/02/12 07:33:59;;;;;;;3.55;3.25;;;1.20;93.00;;;;;;5070889;28;20286;-67
2022/02/12 07:36:26;;;;;;;3.67;3.47;;;2.20;94.20;;;;;;5076954;28;20205;-67
2022/02/12 07:38:53;;;;;;;3.03;2.92;;;3.40;92.40;;;;;;5067788;28;20608;-66
2022/02/12 07:41:20;;;;;;;3.08;2.97;;;4.60;90.80;;;;;;5069474;28;20263;-67
2022/02/12 07:43:47;;;;;;;3.47;3.28;;;5.50;88.40;;;;;;5074236;28;20246;-67
2022/02/12 07:46:15;;;;;;;3.35;3.15;;;6.20;86.20;;;;;;5069627;28;20275;-67
2022/02/12 07:48:43;;;;;;;3.17;2.97;;;6.90;84.30;;;;;;5070706;28;20214;-67
2022/02/12 07:51:10;;;;;;;5.63;3.35;;;7.40;81.50;;;;;;5068338;28;20792;-67
2022/02/12 07:53:37;;;;;;;4.35;4.05;;;7.80;81.50;;;;;;5070389;28;20218;-67
2022/02/12 07:56:05;;;;;;;3.53;3.22;;;8.00;80.40;;;;;;5073780;28;20239;-67
2022/02/12 07:58:32;;;;;;;3.35;3.15;;;8.30;80.10;;;;;;5069237;28;20218;-67
2022/02/12 08:00:59;;;;;;;2.90;2.70;;;8.50;79.50;;;;;;5069633;28;20268;-67
2022/02/12 08:03:27;;;;;;;2.72;2.63;;;8.90;78.80;;;;;;5073989;28;20264;-68
2022/02/12 08:05:54;;;;;;;2.60;2.50;;;9.30;77.80;;;;;;5071554;28;20196;-68
2022/02/12 08:08:21;;;;;;;2.40;2.30;;;9.70;77.60;;;;;;5072309;28;20217;-68
2022/02/12 08:13:33;;;;;;;2.63;2.45;;;10.60;76.90;;;;;;5070337;28;20240;-68
2022/02/12 08:16:00;;;;;;;2.28;2.08;;;10.90;74.50;;;;;;5074108;28;20201;-68
2022/02/12 08:18:28;;;;;;;2.30;2.20;;;11.00;74.10;;;;;;5068416;28;20217;-69
2022/02/12 08:20:55;;;;;;;2.55;2.35;;;11.00;74.20;;;;;;5069562;28;20229;-69
2022/02/12 08:23:22;;;;;;;2.35;2.25;;;11.00;73.60;;;;;;5068448;28;20275;-68
2022/02/12 08:25:49;;;;;;;2.53;2.33;;;10.90;73.50;;;;;;5072826;28;20194;-69
2022/02/12 08:28:16;;;;;;;2.75;2.55;;;11.00;72.60;;;;;;5070535;28;20226;-69
2022/02/12 08:30:43;;;;;;;2.30;2.10;;;11.20;71.80;;;;;;5066208;28;20210;-69
2022/02/12 08:33:10;;;;;;;2.13;2.03;;;11.10;72.10;;;;;;5068777;28;20691;-70
2022/02/12 08:35:40;;;;;;;2.55;2.35;;;10.80;73.10;;;;;;5069974;28;20198;-68
2022/02/12 08:38:07;;;;;;;2.30;2.10;;;10.80;73.80;;;;;;5070947;28;20210;-69
2022/02/12 08:40:35;;;;;;;2.50;2.40;;;11.00;74.20;;;;;;5068406;28;20233;-68
2022/02/12 08:43:02;;;;;;;3.22;2.75;;;11.20;74.50;;;;;;5067263;28;20327;-68
2022/02/12 08:45:29;;;;;;;2.08;1.95;;;11.50;73.60;;;;;;5073473;28;20652;-69
2022/02/12 08:47:56;;;;;;;2.42;2.33;;;11.60;73.30;;;;;;5070817;28;20221;-69
2022/02/12 08:50:23;;;;;;;2.90;2.63;;;11.70;72.80;;;;;;5071248;28;20248;-70
2022/02/12 08:52:51;;;;;;;3.17;2.88;;;11.50;72.30;;;;;;5070904;28;20225;-68
2022/02/12 08:55:18;;;;;;;2.67;2.47;;;11.50;72.60;;;;;;5072363;28;20609;-69
2022/02/12 08:57:45;;;;;;;2.00;1.83;;;11.40;70.60;;;;;;5071025;28;20202;-70
2022/02/12 09:00:14;;;;;;;2.80;2.60;;;11.30;70.50;;;;;;5065501;28;20194;-70
2022/02/12 09:02:41;;;;;;;2.58;2.38;;;11.40;74.80;;;;;;5070658;28;20281;-69
2022/02/12 09:05:09;;;;;;;3.45;3.03;;;11.50;72.80;;;;;;5067738;28;20292;-70
2022/02/12 09:07:36;;;;;;;3.67;3.20;;;11.50;73.80;;;;;;5071274;28;20236;-70
2022/02/12 09:10:05;;;;;;;3.50;3.20;;;11.70;74.40;;;;;;5071768;28;20408;-70
2022/02/12 09:12:33;;;;;;;3.60;3.30;;;11.80;74.20;;;;;;5068522;28;20267;-69
2022/02/12 09:15:00;;;;;;;3.30;3.00;;;11.30;73.40;;;;;;5074152;28;20209;-70
2022/02/12 09:17:27;;;;;;;4.82;2.70;;;11.30;75.10;;;;;;5068351;28;20676;-70
2022/02/12 09:19:58;;;;;;;8.02;2.45;;;11.40;74.90;;;;;;5068041;28;20555;-70
2022/02/12 09:22:25;;;;;;;4.13;2.50;;;11.20;72.50;;;;;;5067896;28;20224;-69
2022/02/12 09:24:52;;;;;;;2.65;2.45;;;11.30;73.80;;;;;;5070901;28;20893;-71
2022/02/12 09:27:21;;;;;;;2.70;2.50;;;11.40;74.00;;;;;;5066729;28;20202;-68
2022/02/12 09:29:49;;;;;;;2.13;2.00;;;11.50;72.20;;;;;;5067515;28;20233;-72
2022/02/12 09:32:17;;;;;;;4.05;2.60;;;11.10;71.90;;;;;;5073801;28;20228;-70
2022/02/12 09:34:44;;;;;;;2.30;2.10;;;11.20;73.70;;;;;;5069644;28;20275;-72
2022/02/12 09:37:11;;;;;;;2.50;2.30;;;11.50;74.00;;;;;;5072982;28;20246;-71
2022/02/12 09:39:38;;;;;;;2.63;2.42;;;11.50;72.10;;;;;;5070034;28;20316;-70
2022/02/12 09:42:06;;;;;;;2.33;2.20;;;11.70;71.90;;;;;;5069793;28;20215;-70
2022/02/12 09:44:34;;;;;;;2.38;2.17;;;12.40;72.20;;;;;;5074066;28;20577;-71
2022/02/12 09:47:33;;;;;;;1.95;1.85;;;12.50;69.20;;;;;;5075621;28;20193;-68
2022/02/12 09:50:00;;;;;;;2.00;1.70;;;12.10;67.30;;;;;;5068380;28;20218;-69
2022/02/12 09:52:30;;;;;;;2.35;2.20;;;11.90;70.00;;;;;;5073253;28;20637;-70
2022/02/12 09:54:59;;;;;;;1.75;1.65;;;11.80;69.20;;;;;;5068526;28;20300;-70
2022/02/12 09:57:26;;;;;;;1.98;1.80;;;11.90;68.60;;;;;;5074666;28;20761;-71
2022/02/12 10:00:03;;;;;;;1.90;1.80;;;11.70;67.50;;;;;;5077155;28;20757;-68
2022/02/12 10:02:30;;;;;;;1.90;1.80;;;11.50;67.80;;;;;;5074653;28;20229;-69
2022/02/12 10:05:16;;;;;;;1.90;1.80;;;11.30;68.60;;;;;;5074265;28;20300;-70
2022/02/12 10:07:43;;;;;;;2.10;2.00;;;11.70;68.90;;;;;;5072496;28;20198;-69
2022/02/12 10:10:13;;;;;;;2.20;2.00;;;11.80;68.80;;;;;;5074143;28;20232;-69
2022/02/12 10:12:40;;;;;;;2.00;1.90;;;11.80;68.00;;;;;;5074485;28;20309;-69
2022/02/12 10:15:14;;;;;;;1.90;1.75;;;11.80;68.70;;;;;;5075386;28;20224;-70
2022/02/12 10:17:54;;;;;;;1.95;1.85;;;11.90;68.60;;;;;;5074063;28;20210;-70
2022/02/12 10:20:28;;;;;;;1.80;1.70;;;12.00;68.80;;;;;;5071552;28;20652;-70
2022/02/12 10:23:03;;;;;;;1.90;1.80;;;12.10;67.80;;;;;;5073384;28;20233;-70
2022/02/12 10:25:30;;;;;;;2.22;1.63;;;12.40;67.20;;;;;;5075022;28;20684;-72
2022/02/12 10:27:57;;;;;;;2.30;2.20;;;12.40;66.60;;;;;;5073641;28;20193;-69
2022/02/12 10:30:27;;;;;;;2.47;1.65;;;12.60;67.40;;;;;;5072849;28;20221;-70
2022/02/12 10:32:56;;;;;;;1.70;1.60;;;12.80;67.10;;;;;;5075973;28;20200;-70
2022/02/12 10:35:23;;;;;;;2.28;2.13;;;12.50;66.40;;;;;;5074332;28;20243;-70
2022/02/12 10:37:51;;;;;;;1.90;1.80;;;12.70;66.70;;;;;;5073555;28;20201;-70
2022/02/12 10:40:18;;;;;;;2.85;1.80;;;12.80;66.20;;;;;;5077471;28;20423;-69
2022/02/12 10:42:46;;;;;;;2.72;2.03;;;12.40;65.60;;;;;;5078666;28;20282;-71
2022/02/12 10:45:16;;;;;;;5.05;1.77;;;12.30;67.30;;;;;;5073839;28;20211;-68
2022/02/12 10:47:45;;;;;;;2.00;1.85;;;12.50;67.40;;;;;;5070264;28;20190;-71
2022/02/12 10:50:13;;;;;;;1.95;1.77;;;12.70;66.70;;;;;;5071990;28;20558;-69
2022/02/12 10:52:42;;;;;;;1.80;1.70;;;12.80;66.40;;;;;;5074919;28;20187;-67
2022/02/12 10:55:29;;;;;;;1.98;1.88;;;12.60;64.90;;;;;;5071523;28;20302;-67
2022/02/12 10:57:57;;;;;;;3.08;1.92;;;12.30;63.90;;;;;;5077578;28;20227;-66
2022/02/12 11:00:26;;;;;;;1.70;1.60;;;12.10;64.90;;;;;;5070312;28;20222;-67
2022/02/12 11:02:56;;;;;;;2.58;1.90;;;12.00;63.80;;;;;;5074875;28;20297;-66
2022/02/12 11:05:24;;;;;;;1.73;1.63;;;12.10;65.30;;;;;;5070433;28;20210;-67
2022/02/12 11:07:52;;;;;;;1.85;1.75;;;12.20;64.50;;;;;;5071555;28;20194;-66
2022/02/12 11:10:20;;;;;;;1.70;1.60;;;12.50;65.10;;;;;;5069172;28;20222;-67
2022/02/12 11:12:47;;;;;;;1.80;1.70;;;12.60;63.80;;;;;;5071968;28;20194;-67
2022/02/12 11:15:14;;;;;;;1.60;1.50;;;12.60;61.70;;;;;;5072939;28;20214;-67
2022/02/12 11:17:43;;;;;;;1.70;1.60;;;12.50;62.00;;;;;;5071831;28;20195;-66
2022/02/12 11:20:13;;;;;;;1.60;1.48;;;12.60;61.80;;;;;;5072697;28;20213;-67
2022/02/12 11:22:41;;;;;;;1.88;1.45;;;12.90;62.90;;;;;;5072102;28;20217;-67
2022/02/12 11:25:33;;;;;;;2.15;1.45;;;13.40;63.80;;;;;;5071513;28;20977;-67
2022/02/12 11:28:11;;;;;;;1.88;1.77;;;13.30;61.30;;;;;;5074794;28;20529;-66
2022/02/12 11:30:40;;;;;;;1.75;1.42;;;13.30;61.50;;;;;;5070598;28;20706;-67
2022/02/12 11:33:10;;;;;;;1.58;1.48;;;13.50;62.20;;;;;;5069643;28;20198;-67
2022/02/12 11:35:39;;;;;;;1.80;1.70;;;13.80;60.40;;;;;;5070514;28;20279;-68
2022/02/12 11:38:34;;;;;;;1.90;1.80;;;13.50;59.40;;;;;;5076032;28;20197;-67
2022/02/12 11:41:23;;;;;;;1.73;1.63;;;13.10;58.80;;;;;;5074936;28;20673;-67
2022/02/12 11:43:51;;;;;;;3.55;1.80;;;13.10;59.50;;;;;;5071671;28;20248;-67
2022/02/12 11:46:43;;;;;;;1.65;1.55;;;13.20;62.50;;;;;;5073297;28;20580;-67
2022/02/12 11:49:24;;;;;;;1.80;1.70;;;13.50;61.60;;;;;;5070660;28;20664;-67
2022/02/12 11:51:53;;;;;;;1.65;1.55;;;13.70;59.20;;;;;;5082368;28;20221;-66
2022/02/12 11:54:49;;;;;;;1.88;1.77;;;13.20;59.20;;;;;;5073323;28;20625;-66
2022/02/12 11:57:17;;;;;;;1.60;1.50;;;12.80;59.30;;;;;;5070482;28;20300;-68
2022/02/12 11:59:45;;;;;;;1.40;1.30;;;12.70;60.00;;;;;;5074940;28;20277;-68
2022/02/12 12:02:38;;;;;;;1.50;1.40;;;12.70;60.80;;;;;;5069073;28;20244;-67
2022/02/12 12:05:18;;;;;;;1.60;1.50;;;13.00;61.00;;;;;;5071734;28;20198;-65
2022/02/12 12:08:10;;;;;;;1.40;1.30;;;13.20;60.40;;;;;;5074559;28;20225;-69
2022/02/12 12:10:38;;;;;;;1.60;1.50;;;12.90;58.80;;;;;;5072424;28;20214;-66
2022/02/12 12:13:43;;;;;;;1.70;1.60;;;12.70;59.70;;;;;;5073310;28;20230;-69
2022/02/12 12:16:21;;;;;;;1.75;1.63;;;12.50;58.90;;;;;;5077619;28;20618;-66
2022/02/12 12:18:49;;;;;;;1.40;1.30;;;12.30;60.10;;;;;;5071379;28;20195;-68
2022/02/12 12:21:17;;;;;;;1.40;1.30;;;12.30;61.70;;;;;;5069584;28;20245;-67
2022/02/12 12:23:55;;;;;;;1.50;1.40;;;12.40;61.40;;;;;;5071114;28;20205;-66
2022/02/12 12:26:34;;;;;;;1.60;1.50;;;12.50;60.20;;;;;;5069813;28;20241;-67
2022/02/12 12:32:01;;;;;;;1.90;1.80;;;12.30;59.70;;;;;;5072728;28;20245;-66
2022/02/12 12:34:29;;;;;;;1.90;1.80;;;12.50;61.20;;;;;;5074798;28;20194;-66
2022/02/12 12:36:57;;;;;;;1.30;1.30;;;12.80;62.50;;;;;;5070813;28;20270;-66
2022/02/12 12:39:34;;;;;;;1.75;1.65;;;13.00;61.00;;;;;;5071354;28;20352;-67
2022/02/12 12:42:02;;;;;;;1.50;1.40;;;12.80;59.60;;;;;;5069553;28;20217;-66
2022/02/12 12:44:29;;;;;;;1.55;1.45;;;12.60;59.60;;;;;;5075813;28;20204;-66
2022/02/12 12:46:58;;;;;;;1.67;1.60;;;12.40;61.00;;;;;;5071953;28;20210;-66
2022/02/12 12:49:29;;;;;;;1.42;1.33;;;12.10;59.70;;;;;;5071227;28;20204;-66
2022/02/12 12:51:57;;;;;;;1.75;1.65;;;11.90;60.80;;;;;;5073043;28;20267;-66
2022/02/12 12:54:33;;;;;;;1.80;1.70;;;12.00;61.30;;;;;;5073343;28;20285;-66
2022/02/12 12:57:02;;;;;;;1.60;1.50;;;12.10;61.80;;;;;;5071973;28;20663;-66
2022/02/12 12:59:30;;;;;;;2.05;1.83;;;12.30;60.60;;;;;;5071569;28;20661;-66
2022/02/12 13:01:59;;;;;;;1.60;1.45;;;12.50;61.60;;;;;;5074678;28;20214;-66
2022/02/12 13:04:26;;;;;;;1.70;1.40;;;12.60;60.90;;;;;;5072525;28;20221;-66
2022/02/12 13:06:55;;;;;;;1.67;1.58;;;12.50;60.00;;;;;;5069499;28;20213;-66
2022/02/12 13:09:23;;;;;;;1.65;1.55;;;12.40;59.60;;;;;;5072959;28;20263;-66
2022/02/12 13:11:51;;;;;;;1.10;1.10;;;12.20;60.10;;;;;;5091346;22;20211;-76